Time;durP1;ratioP1;P1;durP2;ratioP2;P2;SDS_P1;SDS_P2;PMS_P1;PMS_P2;Temp;Humidity;BMP_temperature;BMP_pressure;BME280_temperature;BME280_humidity;BME280_pressure;Samples;Min_cycle;Max_cycle;Signal;HPM_P1;HPM_P2
2023/03/25 00:01:31;;;;;;;;;;;;;;;;;;4942758;29;19942;-82
2023/03/25 00:04:03;;;;;;;;;;;;;;;;;;4953723;29;19930;-82
2023/03/25 00:06:30;;;;;;;;;;;;;;;;;;4956485;28;19922;-82
2023/03/25 00:08:59;;;;;;;;;;;;;;;;;;4953615;28;19929;-82
2023/03/25 00:11:27;;;;;;;;;;;;;;;;;;4960015;28;19930;-81
2023/03/25 00:13:57;;;;;;;;;;;;;;;;;;4952818;29;19937;-82
2023/03/25 00:16:26;;;;;;;;;;;;;;;;;;4953965;28;20380;-82
2023/03/25 00:18:58;;;;;;;;;;;;;;;;;;4953067;29;19930;-82
2023/03/25 00:21:25;;;;;;;;;;;;;;;;;;4954382;28;19945;-82
2023/03/25 00:23:52;;;;;;;;;;;;;;;;;;4935793;29;19930;-82
2023/03/25 00:26:21;;;;;;;;;;;;;;;;;;4955725;28;19922;-82
2023/03/25 00:28:53;;;;;;;;;;;;;;;;;;4969323;28;19935;-83
2023/03/25 00:31:20;;;;;;;;;;;;;;;;;;4953552;28;19922;-83
2023/03/25 00:33:49;;;;;;;;;;;;;;;;;;4966544;28;19923;-82
2023/03/25 00:36:19;;;;;;;;;;;;;;;;;;4952797;29;19922;-82
2023/03/25 00:38:48;;;;;;;;;;;;;;;;;;4954802;29;19922;-82
2023/03/25 00:41:21;;;;;;;;;;;;;;;;;;4945936;28;19929;-82
2023/03/25 00:43:51;;;;;;;;;;;;;;;;;;4950015;29;19930;-82
2023/03/25 00:46:19;;;;;;;;;;;;;;;;;;4954161;28;19922;-82
2023/03/25 00:48:46;;;;;;;;;;;;;;;;;;4952553;29;19922;-82
2023/03/25 00:51:20;;;;;;;;;;;;;;;;;;4937098;29;19922;-83
2023/03/25 00:53:47;;;;;;;;;;;;;;;;;;4952547;29;20410;-82
2023/03/25 00:56:16;;;;;;;;;;;;;;;;;;4931865;29;20385;-82
2023/03/25 00:58:43;;;;;;;;;;;;;;;;;;4951422;29;19933;-82
2023/03/25 01:01:12;;;;;;;;;;;;;;;;;;4936847;29;19923;-83
2023/03/25 01:03:39;;;;;;;;;;;;;;;;;;4951759;28;19930;-82
2023/03/25 01:06:10;;;;;;;;;;;;;;;;;;4951603;28;19929;-82
2023/03/25 01:08:39;;;;;;;;;;;;;;;;;;4963943;28;19906;-81
2023/03/25 01:11:07;;;;;;;;;;;;;;;;;;4972130;28;19927;-82
2023/03/25 01:13:34;;;;;;;;;;;;;;;;;;4936260;29;19923;-81
2023/03/25 01:16:01;;;;;;;;;;;;;;;;;;4938201;29;19922;-82
2023/03/25 01:18:33;;;;;;;;;;;;;;;;;;4957894;28;19923;-82
2023/03/25 01:21:00;;;;;;;;;;;;;;;;;;4952215;28;19922;-82
2023/03/25 01:23:27;;;;;;;;;;;;;;;;;;4952588;29;19922;-81
2023/03/25 01:25:56;;;;;;;;;;;;;;;;;;4934057;29;19922;-82
2023/03/25 01:28:23;;;;;;;;;;;;;;;;;;4952761;28;19923;-82
2023/03/25 01:30:53;;;;;;;;;;;;;;;;;;4965986;28;19933;-82
2023/03/25 01:33:20;;;;;;;;;;;;;;;;;;4961413;28;19929;-82
2023/03/25 01:35:51;;;;;;;;;;;;;;;;;;4951799;28;20289;-82
2023/03/25 01:38:18;;;;;;;;;;;;;;;;;;4936929;29;20391;-82
2023/03/25 01:40:45;;;;;;;;;;;;;;;;;;4934341;29;19922;-82
2023/03/25 01:43:14;;;;;;;;;;;;;;;;;;4938497;28;19937;-82
2023/03/25 01:45:45;;;;;;;;;;;;;;;;;;4933687;29;19926;-83
2023/03/25 01:48:14;;;;;;;;;;;;;;;;;;4937556;28;19937;-82
2023/03/25 01:50:41;;;;;;;;;;;;;;;;;;4949449;28;19922;-82
2023/03/25 01:53:08;;;;;;;;;;;;;;;;;;4952115;29;19922;-81
2023/03/25 01:55:39;;;;;;;;;;;;;;;;;;4962253;28;19945;-82
2023/03/25 01:58:10;;;;;;;;;;;;;;;;;;4936036;29;20261;-82
2023/03/25 02:00:39;;;;;;;;;;;;;;;;;;4951526;28;19922;-82
2023/03/25 02:03:07;;;;;;;;;;;;;;;;;;4953542;28;20304;-81
2023/03/25 02:05:37;;;;;;;;;;;;;;;;;;4952171;28;19929;-81
2023/03/25 02:08:05;;;;;;;;;;;;;;;;;;4947545;29;19922;-81
2023/03/25 02:10:33;;;;;;;;;;;;;;;;;;4950317;28;19929;-81
2023/03/25 02:13:00;;;;;;;;;;;;;;;;;;4935963;29;19937;-82
2023/03/25 02:15:26;;;;;;;;;;;;;;;;;;4952750;29;19974;-82
2023/03/25 02:18:03;;;;;;;;;;;;;;;;;;4951188;28;19922;-81
2023/03/25 02:20:53;;;;;;;;;;;;;;;;;;4944411;28;19922;-81
2023/03/25 02:23:33;;;;;;;;;;;;;;;;;;4949521;28;20003;-82
2023/03/25 02:26:05;;;;;;;;;;;;;;;;;;4950898;28;19930;-82
2023/03/25 02:28:35;;;;;;;;;;;;;;;;;;4950339;29;19930;-82
2023/03/25 02:31:14;;;;;;;;;;;;;;;;;;4951143;28;19922;-82
2023/03/25 02:33:57;;;;;;;;;;;;;;;;;;4950699;28;19933;-82
2023/03/25 02:36:45;;;;;;;;;;;;;;;;;;4960547;28;19930;-82
2023/03/25 02:39:16;;;;;;;;;;;;;;;;;;4930404;29;19963;-82
2023/03/25 02:41:43;;;;;;;;;;;;;;;;;;4935174;29;20415;-81
2023/03/25 02:44:11;;;;;;;;;;;;;;;;;;4933520;28;19926;-81
2023/03/25 02:46:39;;;;;;;;;;;;;;;;;;4938198;29;19922;-82
2023/03/25 02:49:06;;;;;;;;;;;;;;;;;;4949678;28;19961;-82
2023/03/25 02:51:34;;;;;;;;;;;;;;;;;;4951681;29;19922;-82
2023/03/25 02:54:04;;;;;;;;;;;;;;;;;;4932252;29;19953;-81
2023/03/25 02:56:35;;;;;;;;;;;;;;;;;;4947640;29;19926;-82
2023/03/25 02:59:02;;;;;;;;;;;;;;;;;;4937273;29;19929;-82
2023/03/25 03:01:33;;;;;;;;;;;;;;;;;;4947969;28;19945;-82
2023/03/25 03:04:03;;;;;;;;;;;;;;;;;;4945552;29;19926;-83
2023/03/25 03:06:32;;;;;;;;;;;;;;;;;;4952059;28;20316;-82
2023/03/25 03:09:07;;;;;;;;;;;;;;;;;;4935462;28;20296;-82
2023/03/25 03:11:37;;;;;;;;;;;;;;;;;;4948675;28;19929;-83
2023/03/25 03:14:12;;;;;;;;;;;;;;;;;;4943065;29;19927;-82
2023/03/25 03:16:42;;;;;;;;;;;;;;;;;;4950925;28;19923;-82
2023/03/25 03:19:13;;;;;;;;;;;;;;;;;;4950004;29;19931;-82
2023/03/25 03:21:45;;;;;;;;;;;;;;;;;;4934990;29;19922;-82
2023/03/25 03:24:13;;;;;;;;;;;;;;;;;;4948447;29;19926;-82
2023/03/25 03:26:42;;;;;;;;;;;;;;;;;;4949254;28;19929;-82
2023/03/25 03:29:11;;;;;;;;;;;;;;;;;;4949187;28;20403;-82
2023/03/25 03:31:40;;;;;;;;;;;;;;;;;;4949719;28;20431;-82
2023/03/25 03:34:13;;;;;;;;;;;;;;;;;;4949411;29;19926;-82
2023/03/25 03:36:42;;;;;;;;;;;;;;;;;;4951657;28;19922;-82
2023/03/25 03:39:15;;;;;;;;;;;;;;;;;;4930314;29;19923;-82
2023/03/25 03:41:43;;;;;;;;;;;;;;;;;;4945644;28;19923;-82
2023/03/25 03:44:11;;;;;;;;;;;;;;;;;;4951471;28;19945;-82
2023/03/25 03:46:38;;;;;;;;;;;;;;;;;;4936207;29;19945;-82
2023/03/25 03:49:06;;;;;;;;;;;;;;;;;;4949463;28;20304;-82
2023/03/25 03:51:34;;;;;;;;;;;;;;;;;;4949916;28;19929;-83
2023/03/25 03:54:02;;;;;;;;;;;;;;;;;;4947248;28;20273;-83
2023/03/25 03:56:35;;;;;;;;;;;;;;;;;;4951344;29;19929;-83
2023/03/25 03:59:04;;;;;;;;;;;;;;;;;;4934025;29;20419;-82
2023/03/25 04:01:34;;;;;;;;;;;;;;;;;;4948936;29;19933;-83
2023/03/25 04:04:02;;;;;;;;;;;;;;;;;;4948180;28;19926;-82
2023/03/25 04:06:34;;;;;;;;;;;;;;;;;;4931872;29;19930;-82
2023/03/25 04:09:04;;;;;;;;;;;;;;;;;;4947540;28;20385;-82
2023/03/25 04:11:32;;;;;;;;;;;;;;;;;;4951229;29;19923;-83
2023/03/25 04:13:59;;;;;;;;;;;;;;;;;;4962151;28;19922;-82
2023/03/25 04:16:28;;;;;;;;;;;;;;;;;;4951516;29;19922;-82
2023/03/25 04:18:57;;;;;;;;;;;;;;;;;;4933743;29;20412;-83
2023/03/25 04:21:24;;;;;;;;;;;;;;;;;;4953274;28;19923;-83
2023/03/25 04:23:51;;;;;;;;;;;;;;;;;;4948492;28;19937;-82
2023/03/25 04:26:20;;;;;;;;;;;;;;;;;;4950815;29;19945;-82
2023/03/25 04:28:47;;;;;;;;;;;;;;;;;;4932868;29;19922;-83
2023/03/25 04:31:17;;;;;;;;;;;;;;;;;;4944335;29;20330;-82
2023/03/25 04:33:47;;;;;;;;;;;;;;;;;;4945764;29;19929;-82
2023/03/25 04:36:14;;;;;;;;;;;;;;;;;;4946584;28;19929;-82
2023/03/25 04:38:44;;;;;;;;;;;;;;;;;;4944893;28;19938;-82
2023/03/25 04:41:14;;;;;;;;;;;;;;;;;;4966663;23;20337;-80
2023/03/25 04:43:44;;;;;;;;;;;;;;;;;;4949211;28;19937;-80
2023/03/25 04:46:11;;;;;;;;;;;;;;;;;;4933658;29;19930;-80
2023/03/25 04:48:40;;;;;;;;;;;;;;;;;;4941519;29;19926;-80
2023/03/25 04:51:11;;;;;;;;;;;;;;;;;;4943836;28;19931;-80
2023/03/25 04:53:38;;;;;;;;;;;;;;;;;;4935584;29;19930;-80
2023/03/25 04:56:06;;;;;;;;;;;;;;;;;;4937656;29;19922;-80
2023/03/25 04:58:35;;;;;;;;;;;;;;;;;;4933153;29;20516;-80
2023/03/25 05:01:05;;;;;;;;;;;;;;;;;;4916860;29;19930;-80
2023/03/25 05:03:38;;;;;;;;;;;;;;;;;;4932358;29;19922;-80
2023/03/25 05:06:11;;;;;;;;;;;;;;;;;;4931896;29;19923;-80
2023/03/25 05:08:41;;;;;;;;;;;;;;;;;;4933194;29;19926;-80
2023/03/25 05:11:07;;;;;;;;;;;;;;;;;;4932724;29;19934;-81
2023/03/25 05:13:34;;;;;;;;;;;;;;;;;;4935779;29;19930;-80
2023/03/25 05:16:01;;;;;;;;;;;;;;;;;;4928585;29;19922;-80
2023/03/25 05:18:28;;;;;;;;;;;;;;;;;;4929929;29;20304;-81
2023/03/25 05:20:59;;;;;;;;;;;;;;;;;;4931483;29;20308;-80
2023/03/25 05:23:30;;;;;;;;;;;;;;;;;;4934217;29;19930;-81
2023/03/25 05:25:59;;;;;;;;;;;;;;;;;;4948313;28;19930;-81
2023/03/25 05:28:26;;;;;;;;;;;;;;;;;;4934436;29;19923;-80
2023/03/25 05:30:56;;;;;;;;;;;;;;;;;;4934103;29;19930;-80
2023/03/25 05:33:23;;;;;;;;;;;;;;;;;;4926164;29;19937;-81
2023/03/25 05:35:50;;;;;;;;;;;;;;;;;;4935228;29;19945;-81
2023/03/25 05:38:19;;;;;;;;;;;;;;;;;;4935975;29;19923;-81
2023/03/25 05:40:48;;;;;;;;;;;;;;;;;;4930672;29;19926;-81
2023/03/25 05:43:15;;;;;;;;;;;;;;;;;;4937024;29;19930;-81
2023/03/25 05:45:45;;;;;;;;;;;;;;;;;;4933195;29;19930;-81
2023/03/25 05:48:14;;;;;;;;;;;;;;;;;;4934607;29;20407;-81
2023/03/25 05:50:42;;;;;;;;;;;;;;;;;;4934373;29;19938;-81
2023/03/25 05:53:10;;;;;;;;;;;;;;;;;;4918903;29;19927;-81
2023/03/25 05:55:37;;;;;;;;;;;;;;;;;;4938670;29;19923;-81
2023/03/25 05:58:09;;;;;;;;;;;;;;;;;;4935795;29;19926;-80
2023/03/25 06:00:37;;;;;;;;;;;;;;;;;;4910794;29;19927;-80
2023/03/25 06:03:06;;;;;;;;;;;;;;;;;;4929194;29;19923;-80
2023/03/25 06:05:35;;;;;;;;;;;;;;;;;;4948427;29;19923;-80
2023/03/25 06:08:02;;;;;;;;;;;;;;;;;;4927440;29;19930;-80
2023/03/25 06:10:32;;;;;;;;;;;;;;;;;;4942175;29;19923;-80
2023/03/25 06:13:02;;;;;;;;;;;;;;;;;;4947504;29;19930;-80
2023/03/25 06:15:32;;;;;;;;;;;;;;;;;;4944337;28;19923;-80
2023/03/25 06:17:59;;;;;;;;;;;;;;;;;;4938806;29;19923;-80
2023/03/25 06:20:26;;;;;;;;;;;;;;;;;;4925037;29;19922;-80
2023/03/25 06:22:55;;;;;;;;;;;;;;;;;;4931580;29;19946;-80
2023/03/25 06:25:22;;;;;;;;;;;;;;;;;;4934258;29;19986;-80
2023/03/25 06:27:49;;;;;;;;;;;;;;;;;;4944726;29;19922;-80
2023/03/25 06:30:18;;;;;;;;;;;;;;;;;;4936943;29;20308;-80
2023/03/25 06:32:49;;;;;;;;;;;;;;;;;;4946876;28;20265;-80
2023/03/25 06:35:18;;;;;;;;;;;;;;;;;;4932866;29;19930;-80
2023/03/25 06:37:48;;;;;;;;;;;;;;;;;;4933357;29;19923;-80
2023/03/25 06:40:23;;;;;;;;;;;;;;;;;;4948639;29;20274;-80
2023/03/25 06:42:50;;;;;;;;;;;;;;;;;;4944236;29;19922;-81
2023/03/25 06:45:46;;;;;;;;;;;;;;;;;;4932194;29;19930;-80
2023/03/25 06:48:22;;;;;;;;;;;;;;;;;;4924396;29;20301;-80
2023/03/25 06:50:49;;;;;;;;;;;;;;;;;;4929970;29;19933;-80
2023/03/25 06:53:20;;;;;;;;;;;;;;;;;;4926790;29;19930;-80
2023/03/25 06:55:47;;;;;;;;;;;;;;;;;;4917715;29;20396;-80
2023/03/25 06:58:17;;;;;;;;;;;;;;;;;;4932447;29;19938;-80
2023/03/25 07:00:46;;;;;;;;;;;;;;;;;;4934061;29;20384;-80
2023/03/25 07:03:15;;;;;;;;;;;;;;;;;;4930587;29;20011;-80
2023/03/25 07:05:44;;;;;;;;;;;;;;;;;;4930564;29;19949;-80
2023/03/25 07:08:12;;;;;;;;;;;;;;;;;;4946979;29;20000;-80
2023/03/25 07:10:41;;;;;;;;;;;;;;;;;;4949096;28;19930;-80
2023/03/25 07:13:08;;;;;;;;;;;;;;;;;;4925826;29;19931;-80
2023/03/25 07:15:35;;;;;;;;;;;;;;;;;;4933340;29;19931;-80
2023/03/25 07:18:05;;;;;;;;;;;;;;;;;;4938005;29;19945;-80
2023/03/25 07:20:32;;;;;;;;;;;;;;;;;;4932905;29;19923;-80
2023/03/25 07:23:00;;;;;;;;;;;;;;;;;;4945732;29;19927;-80
2023/03/25 07:25:27;;;;;;;;;;;;;;;;;;4932722;29;19931;-80
2023/03/25 07:27:54;;;;;;;;;;;;;;;;;;4928497;29;19930;-80
2023/03/25 07:30:23;;;;;;;;;;;;;;;;;;4929943;29;19927;-80
2023/03/25 07:32:52;;;;;;;;;;;;;;;;;;4933742;29;19927;-80
2023/03/25 07:35:19;;;;;;;;;;;;;;;;;;4942190;29;19923;-80
2023/03/25 07:37:46;;;;;;;;;;;;;;;;;;4930714;29;19926;-80
2023/03/25 07:40:15;;;;;;;;;;;;;;;;;;4934385;29;19923;-81
2023/03/25 07:42:41;;;;;;;;;;;;;;;;;;4927927;29;19923;-81
2023/03/25 07:45:35;;;;;;;;;;;;;;;;;;4924427;29;19938;-83
2023/03/25 07:48:02;;;;;;;;;;;;;;;;;;4936263;29;19923;-81
2023/03/25 07:50:29;;;;;;;;;;;;;;;;;;4932593;29;20383;-81
2023/03/25 07:52:58;;;;;;;;;;;;;;;;;;4936420;29;19946;-81
2023/03/25 07:55:26;;;;;;;;;;;;;;;;;;4931660;29;19926;-82
2023/03/25 07:57:53;;;;;;;;;;;;;;;;;;4931394;29;19923;-81
2023/03/25 08:00:23;;;;;;;;;;;;;;;;;;4933041;29;20313;-81
2023/03/25 08:02:50;;;;;;;;;;;;;;;;;;4932707;29;19923;-81
2023/03/25 08:05:20;;;;;;;;;;;;;;;;;;4933159;29;19922;-81
2023/03/25 08:07:47;;;;;;;;;;;;;;;;;;4926963;29;19927;-81
2023/03/25 08:10:14;;;;;;;;;;;;;;;;;;4926955;29;19923;-82
2023/03/25 08:12:43;;;;;;;;;;;;;;;;;;4927520;29;19923;-81
2023/03/25 08:15:12;;;;;;;;;;;;;;;;;;4924178;29;19923;-81
2023/03/25 08:17:39;;;;;;;;;;;;;;;;;;4932170;29;20372;-82
2023/03/25 08:20:08;;;;;;;;;;;;;;;;;;4929012;29;19945;-81
2023/03/25 08:22:35;;;;;;;;;;;;;;;;;;4934061;29;19930;-82
2023/03/25 08:25:07;;;;;;;;;;;;;;;;;;4936998;29;19930;-82
2023/03/25 08:27:34;;;;;;;;;;;;;;;;;;4921246;29;20414;-82
2023/03/25 08:30:08;;;;;;;;;;;;;;;;;;4930929;29;19923;-82
2023/03/25 08:32:37;;;;;;;;;;;;;;;;;;4915831;29;19934;-82
2023/03/25 08:35:05;;;;;;;;;;;;;;;;;;4936108;29;20296;-82
2023/03/25 08:37:34;;;;;;;;;;;;;;;;;;4938120;29;20380;-81
2023/03/25 08:40:06;;;;;;;;;;;;;;;;;;4943447;29;19930;-82
2023/03/25 08:42:33;;;;;;;;;;;;;;;;;;4936589;29;19922;-82
2023/03/25 08:45:03;;;;;;;;;;;;;;;;;;4932669;29;19923;-82
2023/03/25 08:47:35;;;;;;;;;;;;;;;;;;4932177;29;19927;-82
2023/03/25 08:50:05;;;;;;;;;;;;;;;;;;4917521;29;19945;-82
2023/03/25 08:52:32;;;;;;;;;;;;;;;;;;4929030;29;19930;-82
2023/03/25 08:54:59;;;;;;;;;;;;;;;;;;4928778;29;19922;-81
2023/03/25 08:57:26;;;;;;;;;;;;;;;;;;4931576;29;19926;-82
2023/03/25 08:59:53;;;;;;;;;;;;;;;;;;4934821;29;19930;-82
2023/03/25 09:02:20;;;;;;;;;;;;;;;;;;4921100;29;20300;-81
2023/03/25 09:04:49;;;;;;;;;;;;;;;;;;4933701;29;19922;-82
2023/03/25 09:07:22;;;;;;;;;;;;;;;;;;4936456;29;19923;-82
2023/03/25 09:09:49;;;;;;;;;;;;;;;;;;4932523;29;19931;-82
2023/03/25 09:12:18;;;;;;;;;;;;;;;;;;4938591;29;19922;-81
2023/03/25 09:14:45;;;;;;;;;;;;;;;;;;4947267;29;19929;-81
2023/03/25 09:17:12;;;;;;;;;;;;;;;;;;4936258;29;19930;-82
2023/03/25 09:19:41;;;;;;;;;;;;;;;;;;4914570;29;19923;-82
2023/03/25 09:22:09;;;;;;;;;;;;;;;;;;4933374;29;20319;-82
2023/03/25 09:24:37;;;;;;;;;;;;;;;;;;4950227;29;19949;-82
2023/03/25 09:27:04;;;;;;;;;;;;;;;;;;4937182;29;19933;-82
2023/03/25 09:29:31;;;;;;;;;;;;;;;;;;4923460;29;19929;-82
2023/03/25 09:32:00;;;;;;;;;;;;;;;;;;4936092;29;19922;-82
2023/03/25 09:34:27;;;;;;;;;;;;;;;;;;4935015;29;19922;-82
2023/03/25 09:36:56;;;;;;;;;;;;;;;;;;4935289;29;19934;-82
2023/03/25 09:39:25;;;;;;;;;;;;;;;;;;4933743;29;20399;-82
2023/03/25 09:42:01;;;;;;;;;;;;;;;;;;4936373;29;19926;-82
2023/03/25 09:44:34;;;;;;;;;;;;;;;;;;4908640;29;19930;-82
2023/03/25 09:47:01;;;;;;;;;;;;;;;;;;4932502;29;19923;-82
2023/03/25 09:49:31;;;;;;;;;;;;;;;;;;4929265;29;20415;-81
2023/03/25 09:52:01;;;;;;;;;;;;;;;;;;4935992;29;19923;-81
2023/03/25 09:54:30;;;;;;;;;;;;;;;;;;4947902;29;20415;-81
2023/03/25 09:56:59;;;;;;;;;;;;;;;;;;4935139;29;20010;-80
2023/03/25 09:59:31;;;;;;;;;;;;;;;;;;4948633;29;19934;-81
2023/03/25 10:01:59;;;;;;;;;;;;;;;;;;4936202;29;20384;-81
2023/03/25 10:04:41;;;;;;;;;;;;;;;;;;4918096;29;20461;-81
2023/03/25 10:07:13;;;;;;;;;;;;;;;;;;4912857;29;19926;-81
2023/03/25 10:09:44;;;;;;;;;;;;;;;;;;4933031;29;19923;-81
2023/03/25 10:12:21;;;;;;;;;;;;;;;;;;4929155;29;19945;-83
2023/03/25 10:14:51;;;;;;;;;;;;;;;;;;4938016;29;20408;-81
2023/03/25 10:17:21;;;;;;;;;;;;;;;;;;4934094;29;19922;-81
2023/03/25 10:19:54;;;;;;;;;;;;;;;;;;4929861;29;19946;-81
2023/03/25 10:22:22;;;;;;;;;;;;;;;;;;4936035;29;19922;-81
2023/03/25 10:24:51;;;;;;;;;;;;;;;;;;4948628;28;20422;-81
2023/03/25 10:27:19;;;;;;;;;;;;;;;;;;4935671;29;19930;-81
2023/03/25 10:29:49;;;;;;;;;;;;;;;;;;4934441;29;19922;-81
2023/03/25 10:32:17;;;;;;;;;;;;;;;;;;4935788;29;20494;-81
2023/03/25 10:34:46;;;;;;;;;;;;;;;;;;4931092;29;19930;-81
2023/03/25 10:37:13;;;;;;;;;;;;;;;;;;4935743;29;19923;-81
2023/03/25 10:39:44;;;;;;;;;;;;;;;;;;4932036;29;19923;-80
2023/03/25 10:42:46;;;;;;;;;;;;;;;;;;4891647;29;19931;-83
2023/03/25 10:45:18;;;;;;;;;;;;;;;;;;4888415;29;19923;-83
2023/03/25 10:47:47;;;;;;;;;;;;;;;;;;4900124;29;19923;-83
2023/03/25 10:50:15;;;;;;;;;;;;;;;;;;4895188;29;19927;-83
2023/03/25 10:52:42;;;;;;;;;;;;;;;;;;4902995;29;19927;-83
2023/03/25 10:55:09;;;;;;;;;;;;;;;;;;4878900;29;19923;-83
2023/03/25 10:57:39;;;;;;;;;;;;;;;;;;4907199;29;20298;-83
2023/03/25 11:00:11;;;;;;;;;;;;;;;;;;4899037;29;19939;-83
2023/03/25 11:02:40;;;;;;;;;;;;;;;;;;4901414;29;19923;-83
2023/03/25 11:05:07;;;;;;;;;;;;;;;;;;4877096;29;20283;-83
2023/03/25 11:07:35;;;;;;;;;;;;;;;;;;4898973;29;19927;-83
2023/03/25 11:10:10;;;;;;;;;;;;;;;;;;4896401;29;19923;-83
2023/03/25 11:12:37;;;;;;;;;;;;;;;;;;4893512;29;20378;-83
2023/03/25 11:15:05;;;;;;;;;;;;;;;;;;4864520;29;20158;-83
2023/03/25 11:17:33;;;;;;;;;;;;;;;;;;4896319;29;20522;-83
2023/03/25 11:20:04;;;;;;;;;;;;;;;;;;4877426;29;19923;-83
2023/03/25 11:22:35;;;;;;;;;;;;;;;;;;4879300;29;19931;-83
2023/03/25 11:25:03;;;;;;;;;;;;;;;;;;4876206;29;19931;-83
2023/03/25 11:27:30;;;;;;;;;;;;;;;;;;4880493;29;19923;-83
2023/03/25 11:29:59;;;;;;;;;;;;;;;;;;4894414;29;19946;-83
2023/03/25 11:32:32;;;;;;;;;;;;;;;;;;4896852;29;19930;-83
2023/03/25 11:35:03;;;;;;;;;;;;;;;;;;4894111;29;19931;-83
2023/03/25 11:37:31;;;;;;;;;;;;;;;;;;4893494;29;19923;-82
2023/03/25 11:40:05;;;;;;;;;;;;;;;;;;4877856;29;20005;-83
2023/03/25 11:42:32;;;;;;;;;;;;;;;;;;4895196;29;19923;-82
2023/03/25 11:45:00;;;;;;;;;;;;;;;;;;4892182;29;19978;-82
2023/03/25 11:47:27;;;;;;;;;;;;;;;;;;4891045;29;19924;-84
2023/03/25 11:49:54;;;;;;;;;;;;;;;;;;4875960;29;19923;-82
2023/03/25 11:52:23;;;;;;;;;;;;;;;;;;4884398;29;19930;-84
2023/03/25 11:54:55;;;;;;;;;;;;;;;;;;4892921;29;19950;-82
2023/03/25 11:57:22;;;;;;;;;;;;;;;;;;4892128;29;20305;-82
2023/03/25 11:59:50;;;;;;;;;;;;;;;;;;4873949;29;19924;-82
2023/03/25 12:02:19;;;;;;;;;;;;;;;;;;4895480;29;19923;-82
2023/03/25 12:04:54;;;;;;;;;;;;;;;;;;4902626;29;19958;-82
2023/03/25 12:07:23;;;;;;;;;;;;;;;;;;4890245;29;20394;-82
2023/03/25 12:09:53;;;;;;;;;;;;;;;;;;4890461;29;19927;-82
2023/03/25 12:12:33;;;;;;;;;;;;;;;;;;4891115;29;20290;-82
2023/03/25 12:15:07;;;;;;;;;;;;;;;;;;4892428;29;19935;-82
2023/03/25 12:17:40;;;;;;;;;;;;;;;;;;4890941;29;19923;-82
2023/03/25 12:20:10;;;;;;;;;;;;;;;;;;4878693;29;19923;-82
2023/03/25 12:22:45;;;;;;;;;;;;;;;;;;4896137;29;19924;-82
2023/03/25 12:25:17;;;;;;;;;;;;;;;;;;4888763;29;19930;-82
2023/03/25 12:27:51;;;;;;;;;;;;;;;;;;4910033;29;19923;-82
2023/03/25 12:30:20;;;;;;;;;;;;;;;;;;4897405;29;19947;-82
2023/03/25 12:32:49;;;;;;;;;;;;;;;;;;4895417;29;19923;-82
2023/03/25 12:35:20;;;;;;;;;;;;;;;;;;4894837;29;20314;-82
2023/03/25 12:37:52;;;;;;;;;;;;;;;;;;4892587;29;19930;-82
2023/03/25 12:40:29;;;;;;;;;;;;;;;;;;4904150;29;19927;-82
2023/03/25 12:42:58;;;;;;;;;;;;;;;;;;4879021;29;19935;-82
2023/03/25 12:45:29;;;;;;;;;;;;;;;;;;4893174;29;19943;-82
2023/03/25 12:47:59;;;;;;;;;;;;;;;;;;4890274;29;19930;-82
2023/03/25 12:50:31;;;;;;;;;;;;;;;;;;4892321;29;19923;-82
2023/03/25 12:53:03;;;;;;;;;;;;;;;;;;4894520;29;19931;-82
2023/03/25 12:55:34;;;;;;;;;;;;;;;;;;4890319;29;19935;-82
2023/03/25 12:58:05;;;;;;;;;;;;;;;;;;4876070;29;19956;-81
2023/03/25 13:00:35;;;;;;;;;;;;;;;;;;4892553;29;20420;-82
2023/03/25 13:03:11;;;;;;;;;;;;;;;;;;4891724;29;19934;-82
2023/03/25 13:05:39;;;;;;;;;;;;;;;;;;4862784;29;19923;-82
2023/03/25 13:08:10;;;;;;;;;;;;;;;;;;4880334;29;20373;-82
2023/03/25 13:10:37;;;;;;;;;;;;;;;;;;4864708;29;20301;-82
2023/03/25 13:13:07;;;;;;;;;;;;;;;;;;4880902;29;19923;-83
2023/03/25 13:15:35;;;;;;;;;;;;;;;;;;4901553;29;19923;-83
2023/03/25 13:18:06;;;;;;;;;;;;;;;;;;4894459;29;19931;-80
2023/03/25 13:20:35;;;;;;;;;;;;;;;;;;4896406;29;19923;-82
2023/03/25 13:23:03;;;;;;;;;;;;;;;;;;4895988;29;19923;-82
2023/03/25 13:25:33;;;;;;;;;;;;;;;;;;4893359;29;19923;-82
2023/03/25 13:28:02;;;;;;;;;;;;;;;;;;4897325;29;19930;-82
2023/03/25 13:30:33;;;;;;;;;;;;;;;;;;4880070;29;19924;-82
2023/03/25 13:33:01;;;;;;;;;;;;;;;;;;4879391;29;19934;-82
2023/03/25 13:35:31;;;;;;;;;;;;;;;;;;4894713;29;19923;-83
2023/03/25 13:37:59;;;;;;;;;;;;;;;;;;4895988;29;19946;-83
2023/03/25 13:40:32;;;;;;;;;;;;;;;;;;4893646;29;19946;-82
2023/03/25 13:43:02;;;;;;;;;;;;;;;;;;4910933;29;20034;-82
2023/03/25 13:45:31;;;;;;;;;;;;;;;;;;4877308;29;19950;-83
2023/03/25 13:47:59;;;;;;;;;;;;;;;;;;4880985;29;19930;-83
2023/03/25 13:50:27;;;;;;;;;;;;;;;;;;4909593;29;19932;-83
2023/03/25 13:52:55;;;;;;;;;;;;;;;;;;4892758;29;19924;-82
2023/03/25 13:55:23;;;;;;;;;;;;;;;;;;4874407;29;20375;-84
2023/03/25 13:58:08;;;;;;;;;;;;;;;;;;4889340;29;20434;-83
2023/03/25 14:00:45;;;;;;;;;;;;;;;;;;4883317;29;19927;-83
2023/03/25 14:03:28;;;;;;;;;;;;;;;;;;4887194;29;19923;-82
2023/03/25 14:06:00;;;;;;;;;;;;;;;;;;4910864;29;19931;-81
2023/03/25 14:08:31;;;;;;;;;;;;;;;;;;4899340;29;19930;-82
2023/03/25 14:11:02;;;;;;;;;;;;;;;;;;4894728;29;19931;-82
2023/03/25 14:13:29;;;;;;;;;;;;;;;;;;4880642;29;19923;-80
2023/03/25 14:15:59;;;;;;;;;;;;;;;;;;4910996;29;19930;-80
2023/03/25 14:18:30;;;;;;;;;;;;;;;;;;4923017;29;20393;-81
2023/03/25 14:20:57;;;;;;;;;;;;;;;;;;4899319;29;19931;-82
2023/03/25 14:23:25;;;;;;;;;;;;;;;;;;4876936;29;20405;-82
2023/03/25 14:25:53;;;;;;;;;;;;;;;;;;4881823;29;19943;-82
2023/03/25 14:28:21;;;;;;;;;;;;;;;;;;4884192;29;19923;-83
2023/03/25 14:31:03;;;;;;;;;;;;;;;;;;4895431;29;19931;-82
2023/03/25 14:33:38;;;;;;;;;;;;;;;;;;4876862;29;19924;-81
2023/03/25 14:36:05;;;;;;;;;;;;;;;;;;4879580;29;19923;-82
2023/03/25 14:38:47;;;;;;;;;;;;;;;;;;4896958;29;19930;-82
2023/03/25 14:41:14;;;;;;;;;;;;;;;;;;4896131;29;19931;-82
2023/03/25 14:43:44;;;;;;;;;;;;;;;;;;4907632;29;19930;-82
2023/03/25 14:46:17;;;;;;;;;;;;;;;;;;4893906;29;19931;-82
2023/03/25 14:48:49;;;;;;;;;;;;;;;;;;4880552;29;20409;-82
2023/03/25 14:51:20;;;;;;;;;;;;;;;;;;4896252;29;20294;-82
2023/03/25 14:53:50;;;;;;;;;;;;;;;;;;4891646;29;20409;-82
2023/03/25 14:56:18;;;;;;;;;;;;;;;;;;4890635;29;19924;-82
2023/03/25 14:58:49;;;;;;;;;;;;;;;;;;4883132;29;20230;-82
2023/03/25 15:01:18;;;;;;;;;;;;;;;;;;4891995;29;19923;-82
2023/03/25 15:03:49;;;;;;;;;;;;;;;;;;4908916;29;20412;-82
2023/03/25 15:06:20;;;;;;;;;;;;;;;;;;4891292;29;19923;-82
2023/03/25 15:08:50;;;;;;;;;;;;;;;;;;4896212;29;19924;-82
2023/03/25 15:11:18;;;;;;;;;;;;;;;;;;4890184;29;19927;-82
2023/03/25 15:13:51;;;;;;;;;;;;;;;;;;4875064;29;19924;-82
2023/03/25 15:16:19;;;;;;;;;;;;;;;;;;4874735;29;19938;-83
2023/03/25 15:19:00;;;;;;;;;;;;;;;;;;4899405;29;19931;-82
2023/03/25 15:21:31;;;;;;;;;;;;;;;;;;4883439;29;20009;-82
2023/03/25 15:24:03;;;;;;;;;;;;;;;;;;4897576;29;19935;-82
2023/03/25 15:26:31;;;;;;;;;;;;;;;;;;4897140;29;19924;-82
2023/03/25 15:29:05;;;;;;;;;;;;;;;;;;4877741;29;19938;-82
2023/03/25 15:31:36;;;;;;;;;;;;;;;;;;4903748;29;19930;-82
2023/03/25 15:34:08;;;;;;;;;;;;;;;;;;4874174;29;19928;-82
2023/03/25 15:36:52;;;;;;;;;;;;;;;;;;4895831;29;19923;-82
2023/03/25 15:39:25;;;;;;;;;;;;;;;;;;4905391;29;19923;-82
2023/03/25 15:41:59;;;;;;;;;;;;;;;;;;4896053;29;19930;-82
2023/03/25 15:44:39;;;;;;;;;;;;;;;;;;4892313;29;19923;-82
2023/03/25 15:47:09;;;;;;;;;;;;;;;;;;4893825;29;19927;-82
2023/03/25 15:49:41;;;;;;;;;;;;;;;;;;4893114;29;19923;-82
2023/03/25 15:52:11;;;;;;;;;;;;;;;;;;4896358;29;20290;-82
2023/03/25 15:54:41;;;;;;;;;;;;;;;;;;4876718;29;19927;-82
2023/03/25 15:57:15;;;;;;;;;;;;;;;;;;4907424;29;19924;-82
2023/03/25 15:59:43;;;;;;;;;;;;;;;;;;4893950;29;19924;-82
2023/03/25 16:02:16;;;;;;;;;;;;;;;;;;4880066;29;19923;-82
2023/03/25 16:04:47;;;;;;;;;;;;;;;;;;4892582;29;19931;-82
2023/03/25 16:07:17;;;;;;;;;;;;;;;;;;4879299;29;19931;-82
2023/03/25 16:09:44;;;;;;;;;;;;;;;;;;4894315;29;20429;-82
2023/03/25 16:12:12;;;;;;;;;;;;;;;;;;4879803;29;20534;-82
2023/03/25 16:14:40;;;;;;;;;;;;;;;;;;4893373;29;20432;-82
2023/03/25 16:17:07;;;;;;;;;;;;;;;;;;4873658;29;19927;-82
2023/03/25 16:19:38;;;;;;;;;;;;;;;;;;4897862;29;19940;-82
2023/03/25 16:22:12;;;;;;;;;;;;;;;;;;4890446;29;20291;-82
2023/03/25 16:24:41;;;;;;;;;;;;;;;;;;4877459;29;20452;-82
2023/03/25 16:27:13;;;;;;;;;;;;;;;;;;4908802;29;19931;-82
2023/03/25 16:29:47;;;;;;;;;;;;;;;;;;4887657;29;20037;-82
2023/03/25 16:32:16;;;;;;;;;;;;;;;;;;4875431;29;19923;-82
2023/03/25 16:34:43;;;;;;;;;;;;;;;;;;4875194;29;19935;-82
2023/03/25 16:37:15;;;;;;;;;;;;;;;;;;4895593;29;19930;-82
2023/03/25 16:39:42;;;;;;;;;;;;;;;;;;4859438;29;19931;-82
2023/03/25 16:42:13;;;;;;;;;;;;;;;;;;4989494;23;19929;-80
2023/03/25 16:44:40;;;;;;;;;;;;;;;;;;4971411;28;19929;-80
2023/03/25 16:47:11;;;;;;;;;;;;;;;;;;4974347;28;20375;-80
2023/03/25 16:49:41;;;;;;;;;;;;;;;;;;4971386;28;19945;-80
2023/03/25 16:52:10;;;;;;;;;;;;;;;;;;4956312;28;19926;-80
2023/03/25 16:54:45;;;;;;;;;;;;;;;;;;4956853;28;19938;-81
2023/03/25 16:57:15;;;;;;;;;;;;;;;;;;4949304;28;19930;-81
2023/03/25 16:59:45;;;;;;;;;;;;;;;;;;4953128;28;20384;-80
2023/03/25 17:02:26;;;;;;;;;;;;;;;;;;4957520;29;19929;-81
2023/03/25 17:04:55;;;;;;;;;;;;;;;;;;4952305;28;19929;-80